Time;durP1;ratioP1;P1;durP2;ratioP2;P2;SDS_P1;SDS_P2;PMS_P1;PMS_P2;Temp;Humidity;BMP_temperature;BMP_pressure;BME280_temperature;BME280_humidity;BME280_pressure;Samples;Min_cycle;Max_cycle;Signal;HPM_P1;HPM_P2
2021/01/08 00:00:33;;;;;;;2.63;2.27;;;19.10;54.80;;;;;;6994931;28;20643;-51
2021/01/08 00:04:14;;;;;;;2.93;2.63;;;19.10;54.90;;;;;;6993875;28;20265;-49
2021/01/08 00:07:56;;;;;;;2.87;2.53;;;19.10;55.00;;;;;;7009723;28;20302;-49
2021/01/08 00:11:38;;;;;;;2.60;2.40;;;19.00;54.90;;;;;;7022883;28;20279;-51
2021/01/08 00:15:20;;;;;;;2.40;2.20;;;19.10;55.00;;;;;;7030395;28;20678;-49
2021/01/08 00:19:01;;;;;;;2.40;2.20;;;19.00;55.00;;;;;;7022887;28;20291;-53
2021/01/08 00:22:45;;;;;;;3.47;2.63;;;19.10;55.00;;;;;;7021987;28;20231;-56
2021/01/08 00:26:26;;;;;;;2.33;2.13;;;19.10;55.00;;;;;;7019968;28;20302;-50
2021/01/08 00:30:10;;;;;;;2.40;2.20;;;19.00;55.00;;;;;;7026359;28;20224;-50
2021/01/08 00:33:52;;;;;;;2.50;2.30;;;19.00;55.00;;;;;;7025766;28;20271;-50
2021/01/08 00:37:34;;;;;;;2.50;2.30;;;19.00;55.10;;;;;;7026297;28;20700;-50
2021/01/08 00:41:15;;;;;;;2.20;2.00;;;19.00;55.10;;;;;;7025604;28;20227;-50
2021/01/08 00:44:57;;;;;;;2.60;2.20;;;19.00;55.10;;;;;;7026320;28;20234;-51
2021/01/08 00:48:39;;;;;;;2.30;2.10;;;19.00;55.20;;;;;;7026060;28;20827;-52
2021/01/08 00:52:21;;;;;;;2.23;2.03;;;19.00;55.10;;;;;;7020395;28;20719;-52
2021/01/08 00:56:03;;;;;;;2.13;1.93;;;19.00;55.10;;;;;;6997306;28;20230;-49
2021/01/08 00:59:44;;;;;;;2.03;1.83;;;18.90;55.10;;;;;;6997366;28;20268;-49
2021/01/08 01:03:26;;;;;;;2.80;2.50;;;18.90;55.20;;;;;;6996670;28;20287;-51
2021/01/08 01:07:08;;;;;;;2.30;2.10;;;18.90;55.20;;;;;;7013823;28;20777;-51
2021/01/08 01:10:50;;;;;;;2.17;1.97;;;19.00;55.30;;;;;;7026460;28;20677;-52
2021/01/08 01:14:32;;;;;;;2.43;2.20;;;18.90;55.20;;;;;;7024822;28;20279;-49
2021/01/08 01:18:13;;;;;;;1.93;1.70;;;18.90;55.20;;;;;;7025453;28;20251;-50
2021/01/08 01:21:55;;;;;;;2.23;2.00;;;18.90;55.30;;;;;;7026531;28;20330;-52
2021/01/08 01:25:37;;;;;;;2.00;1.80;;;18.90;55.30;;;;;;7025845;28;20227;-50
2021/01/08 01:29:19;;;;;;;1.93;1.80;;;18.90;55.40;;;;;;7025618;28;20220;-50
2021/01/08 01:33:00;;;;;;;2.10;1.90;;;18.90;55.30;;;;;;7024571;28;20271;-50
2021/01/08 01:36:42;;;;;;;1.90;1.80;;;18.90;55.30;;;;;;7024357;28;20247;-50
2021/01/08 01:40:24;;;;;;;2.47;2.27;;;18.90;55.40;;;;;;7023496;28;20565;-49
2021/01/08 01:44:06;;;;;;;2.20;2.00;;;18.90;55.30;;;;;;7024869;28;20271;-48
2021/01/08 01:47:48;;;;;;;2.00;1.80;;;18.90;55.30;;;;;;7024268;28;20310;-49
2021/01/08 01:51:30;;;;;;;1.67;1.57;;;18.90;55.40;;;;;;7025900;28;20275;-49
2021/01/08 01:55:14;;;;;;;2.13;1.93;;;18.80;55.30;;;;;;7024517;28;20274;-50
2021/01/08 01:58:55;;;;;;;2.00;1.90;;;18.90;55.40;;;;;;7023366;28;20290;-51
2021/01/08 02:02:43;;;;;;;1.97;1.80;;;18.80;55.40;;;;;;7023147;28;20223;-49
2021/01/08 02:06:32;;;;;;;2.10;1.90;;;18.80;55.40;;;;;;7023401;28;20272;-50
2021/01/08 02:10:15;;;;;;;1.87;1.70;;;18.80;55.50;;;;;;7024369;28;20760;-50
2021/01/08 02:14:03;;;;;;;1.90;1.77;;;18.80;55.40;;;;;;7024430;28;20231;-51
2021/01/08 02:17:47;;;;;;;2.10;1.90;;;18.80;55.40;;;;;;7015661;28;20232;-53
2021/01/08 02:21:33;;;;;;;2.20;1.70;;;18.80;55.40;;;;;;7015600;28;20227;-51
2021/01/08 02:25:18;;;;;;;1.77;1.67;;;18.80;55.50;;;;;;7021803;28;20284;-52
2021/01/08 02:29:01;;;;;;;1.43;1.33;;;18.80;55.50;;;;;;7002858;28;20251;-50
2021/01/08 02:32:43;;;;;;;1.70;1.60;;;18.80;55.60;;;;;;7024104;28;20274;-50
2021/01/08 02:36:26;;;;;;;1.60;1.50;;;18.80;55.50;;;;;;7022733;28;20247;-50
2021/01/08 02:40:10;;;;;;;1.53;1.43;;;18.80;55.50;;;;;;7022853;28;20200;-52
2021/01/08 02:43:54;;;;;;;1.60;1.50;;;18.80;55.50;;;;;;7023388;28;20215;-49
2021/01/08 02:47:35;;;;;;;1.90;1.80;;;18.80;55.50;;;;;;7023510;28;20774;-49
2021/01/08 02:51:17;;;;;;;1.73;1.63;;;18.70;55.60;;;;;;7022527;28;20224;-50
2021/01/08 02:55:02;;;;;;;1.60;1.50;;;18.80;55.70;;;;;;6994697;28;20331;-50
2021/01/08 02:58:45;;;;;;;1.50;1.40;;;18.80;55.70;;;;;;6994332;28;20647;-50
2021/01/08 03:02:28;;;;;;;1.33;1.23;;;18.80;55.70;;;;;;6997334;28;20271;-50
2021/01/08 03:06:10;;;;;;;1.50;1.40;;;18.80;55.70;;;;;;7023198;28;20191;-53
2021/01/08 03:09:51;;;;;;;1.60;1.50;;;18.80;55.60;;;;;;7022144;28;20282;-50
2021/01/08 03:13:35;;;;;;;1.30;1.20;;;18.80;55.60;;;;;;7021371;28;20274;-50
2021/01/08 03:17:16;;;;;;;1.40;1.30;;;18.70;55.60;;;;;;7021927;28;20216;-51
2021/01/08 03:20:59;;;;;;;1.60;1.50;;;18.70;55.60;;;;;;7022478;28;20561;-49
2021/01/08 03:24:40;;;;;;;1.50;1.40;;;18.80;55.70;;;;;;7022924;28;20227;-54
2021/01/08 03:28:22;;;;;;;1.70;1.60;;;18.70;55.70;;;;;;7018828;28;20302;-50
2021/01/08 03:32:05;;;;;;;1.67;1.57;;;18.70;55.60;;;;;;7001081;28;20571;-51
2021/01/08 03:35:46;;;;;;;1.40;1.30;;;18.70;55.60;;;;;;7025406;28;20283;-51
2021/01/08 03:39:29;;;;;;;1.30;1.20;;;18.70;55.60;;;;;;7028536;28;20223;-51
2021/01/08 03:43:11;;;;;;;1.20;1.10;;;18.70;55.60;;;;;;6995025;28;20276;-49
2021/01/08 03:46:53;;;;;;;1.47;1.37;;;18.70;55.70;;;;;;6994455;28;20299;-48
2021/01/08 03:50:35;;;;;;;1.40;1.30;;;18.70;55.80;;;;;;6994733;28;20279;-51
2021/01/08 03:54:16;;;;;;;1.20;1.10;;;18.70;55.70;;;;;;6994018;28;20240;-49
2021/01/08 03:57:59;;;;;;;1.23;1.13;;;18.70;55.60;;;;;;6994354;28;20216;-50
2021/01/08 04:01:40;;;;;;;1.57;1.20;;;18.70;55.70;;;;;;7015704;28;20275;-50
2021/01/08 04:05:22;;;;;;;1.30;1.20;;;18.70;55.70;;;;;;7025318;28;20232;-50
2021/01/08 04:09:03;;;;;;;1.47;1.37;;;18.70;55.70;;;;;;7026731;28;20306;-51
2021/01/08 04:12:45;;;;;;;1.20;1.07;;;18.70;55.80;;;;;;7026732;28;20665;-48
2021/01/08 04:16:33;;;;;;;1.23;1.13;;;18.70;55.80;;;;;;7027764;27;20297;-51
2021/01/08 04:20:15;;;;;;;1.40;1.30;;;18.70;55.80;;;;;;7027926;28;20222;-52
2021/01/08 04:23:56;;;;;;;1.40;1.30;;;18.70;55.80;;;;;;7026461;28;20284;-52
2021/01/08 04:27:38;;;;;;;1.40;1.23;;;18.70;55.70;;;;;;7025803;28;20307;-50
2021/01/08 04:31:19;;;;;;;0.90;0.90;;;18.60;55.70;;;;;;7026292;28;20705;-50
2021/01/08 04:35:02;;;;;;;0.83;0.83;;;18.70;55.70;;;;;;7025414;28;20275;-52
2021/01/08 04:38:44;;;;;;;1.00;1.00;;;18.70;55.80;;;;;;7026257;28;20765;-50
2021/01/08 04:42:25;;;;;;;1.33;1.23;;;18.70;55.80;;;;;;7026526;28;20196;-53
2021/01/08 04:46:12;;;;;;;0.80;0.80;;;18.70;55.90;;;;;;7026489;28;20278;-48
2021/01/08 04:49:53;;;;;;;1.23;1.13;;;18.70;55.80;;;;;;7026738;28;20234;-50
2021/01/08 04:53:37;;;;;;;0.87;0.83;;;18.70;55.80;;;;;;7021713;28;20650;-50
2021/01/08 04:57:21;;;;;;;1.17;1.07;;;18.70;55.70;;;;;;6995787;28;20305;-51
2021/01/08 05:01:04;;;;;;;1.17;1.07;;;18.70;55.70;;;;;;7020820;28;20306;-52
2021/01/08 05:04:46;;;;;;;1.17;1.00;;;18.70;55.80;;;;;;7024757;28;20278;-52
2021/01/08 05:08:28;;;;;;;0.77;0.77;;;18.70;55.80;;;;;;7024775;28;20302;-50
2021/01/08 05:12:10;;;;;;;0.90;0.90;;;18.70;55.70;;;;;;7026406;28;20196;-53
2021/01/08 05:15:53;;;;;;;0.80;0.80;;;18.70;55.60;;;;;;7024807;28;20286;-51
2021/01/08 05:19:34;;;;;;;0.90;0.80;;;18.80;55.80;;;;;;7025703;28;20227;-50
2021/01/08 05:23:16;;;;;;;1.13;0.93;;;18.70;55.70;;;;;;7024282;28;20481;-51
2021/01/08 05:27:04;;;;;;;0.90;0.90;;;18.70;55.80;;;;;;7025352;28;20680;-49
2021/01/08 05:30:46;;;;;;;0.90;0.80;;;18.80;55.80;;;;;;7025263;28;20184;-50
2021/01/08 05:34:29;;;;;;;0.80;0.70;;;18.80;55.90;;;;;;7024628;28;20629;-49
2021/01/08 05:38:12;;;;;;;0.80;0.80;;;18.70;55.70;;;;;;7024251;28;20223;-47
2021/01/08 05:41:54;;;;;;;0.70;0.70;;;18.70;55.70;;;;;;7024741;28;20203;-49
2021/01/08 05:45:36;;;;;;;0.70;0.70;;;18.70;55.80;;;;;;7023473;28;20631;-51
2021/01/08 05:49:20;;;;;;;0.90;0.80;;;18.80;55.80;;;;;;7024287;28;20215;-49
2021/01/08 05:53:05;;;;;;;0.70;0.70;;;18.80;55.90;;;;;;7024736;28;20275;-49
2021/01/08 05:56:47;;;;;;;0.60;0.60;;;18.70;55.80;;;;;;7024576;28;20283;-50
2021/01/08 06:00:29;;;;;;;0.80;0.80;;;18.70;55.70;;;;;;7024878;28;20603;-51
2021/01/08 06:04:10;;;;;;;0.63;0.63;;;18.70;55.90;;;;;;7024578;28;20212;-48
2021/01/08 06:07:57;;;;;;;0.63;0.63;;;18.70;55.90;;;;;;7024465;28;20697;-49
2021/01/08 06:11:41;;;;;;;1.00;0.77;;;18.70;55.80;;;;;;7024619;28;20195;-49
2021/01/08 06:15:24;;;;;;;0.70;0.60;;;18.70;55.70;;;;;;7024372;28;20287;-50
2021/01/08 06:19:06;;;;;;;0.63;0.60;;;18.80;55.80;;;;;;7022337;28;20590;-52
2021/01/08 06:22:48;;;;;;;0.77;0.77;;;18.80;55.80;;;;;;7022635;28;20738;-49
2021/01/08 06:26:32;;;;;;;0.57;0.57;;;18.80;55.80;;;;;;7023148;28;20250;-49
2021/01/08 06:30:24;;;;;;;0.80;0.80;;;18.80;55.70;;;;;;7023503;28;20196;-50
2021/01/08 06:34:06;;;;;;;0.67;0.67;;;18.80;56.30;;;;;;7023917;28;20261;-50
2021/01/08 06:37:57;;;;;;;0.50;0.50;;;18.80;55.70;;;;;;7023391;28;20215;-50
2021/01/08 06:41:40;;;;;;;0.70;0.70;;;18.80;55.70;;;;;;7023350;28;20188;-47
2021/01/08 06:45:22;;;;;;;0.60;0.60;;;18.80;55.80;;;;;;7022909;28;20287;-50
2021/01/08 06:49:07;;;;;;;0.60;0.60;;;18.80;55.70;;;;;;7023231;28;20251;-54
2021/01/08 06:52:49;;;;;;;0.60;0.60;;;18.80;55.80;;;;;;7022664;28;20199;-50
2021/01/08 06:56:33;;;;;;;0.70;0.70;;;18.80;55.80;;;;;;7024243;28;20306;-49
2021/01/08 07:00:20;;;;;;;0.60;0.60;;;18.80;55.80;;;;;;7023499;28;20199;-55
2021/01/08 07:04:02;;;;;;;0.40;0.40;;;18.80;56.20;;;;;;7023417;28;20203;-49
2021/01/08 07:07:43;;;;;;;0.67;0.67;;;18.80;55.80;;;;;;7023289;28;20253;-49
2021/01/08 07:11:25;;;;;;;0.50;0.50;;;18.80;55.90;;;;;;7023196;28;20662;-53
2021/01/08 07:15:09;;;;;;;0.50;0.50;;;18.80;55.80;;;;;;7022267;28;20251;-48
2021/01/08 07:19:04;;;;;;;1.00;0.80;;;18.80;55.80;;;;;;7021070;28;20954;-51
2021/01/08 07:22:51;;;;;;;0.53;0.53;;;18.80;55.70;;;;;;7022862;28;20187;-49
2021/01/08 07:26:33;;;;;;;0.73;0.73;;;18.80;55.80;;;;;;7022697;28;20298;-49
2021/01/08 07:30:16;;;;;;;0.60;0.60;;;18.80;55.70;;;;;;7022312;28;20210;-50
2021/01/08 07:34:00;;;;;;;0.60;0.60;;;18.80;55.70;;;;;;7022026;28;20219;-49
2021/01/08 07:37:55;;;;;;;0.60;0.60;;;18.80;55.70;;;;;;7024117;28;20699;-51
2021/01/08 07:41:40;;;;;;;0.53;0.53;;;18.80;55.70;;;;;;7028925;28;20183;-53
2021/01/08 07:45:21;;;;;;;1.57;0.50;;;18.80;55.70;;;;;;7028583;28;20191;-50
2021/01/08 07:49:04;;;;;;;0.67;0.67;;;18.80;55.70;;;;;;7028225;28;20308;-50
2021/01/08 07:52:46;;;;;;;0.63;0.63;;;18.80;55.70;;;;;;7012522;28;20224;-49
2021/01/08 07:56:28;;;;;;;0.70;0.70;;;18.80;55.70;;;;;;6999898;28;20243;-49
2021/01/08 08:00:26;;;;;;;1.43;0.87;;;18.80;55.70;;;;;;7024035;28;20651;-49
2021/01/08 08:04:09;;;;;;;0.70;0.70;;;18.80;55.70;;;;;;7026830;28;20244;-50
2021/01/08 08:07:56;;;;;;;0.70;0.70;;;18.80;55.60;;;;;;7023573;28;20646;-54
2021/01/08 08:11:38;;;;;;;0.60;0.60;;;18.80;55.70;;;;;;7025505;28;20253;-51
2021/01/08 08:15:20;;;;;;;1.90;0.88;;;18.80;55.70;;;;;;7018192;28;20932;-52
2021/01/08 08:19:03;;;;;;;0.53;0.53;;;19.00;55.80;;;;;;7021180;28;20211;-49
2021/01/08 08:22:46;;;;;;;1.07;0.70;;;19.30;54.60;;;;;;7021443;28;20192;-52
2021/01/08 08:26:30;;;;;;;1.43;0.60;;;19.50;53.80;;;;;;7020119;28;20220;-50
2021/01/08 08:30:14;;;;;;;1.00;0.57;;;19.70;53.40;;;;;;7017979;28;20219;-55
2021/01/08 08:33:56;;;;;;;0.90;0.60;;;19.90;53.30;;;;;;7021651;28;20242;-57
2021/01/08 08:37:50;;;;;;;0.70;0.50;;;20.00;52.90;;;;;;7020951;28;20678;-51
2021/01/08 08:41:33;;;;;;;0.40;0.40;;;20.10;52.40;;;;;;7009860;28;20681;-53
2021/01/08 08:45:22;;;;;;;0.40;0.40;;;20.20;52.30;;;;;;7021585;28;20729;-53
2021/01/08 08:49:06;;;;;;;0.53;0.53;;;20.30;52.10;;;;;;7012469;28;20317;-56
2021/01/08 08:52:49;;;;;;;4.73;0.80;;;20.30;51.80;;;;;;7011290;28;20657;-55
2021/01/08 08:56:32;;;;;;;1.47;0.70;;;20.40;51.70;;;;;;7020609;28;20299;-60
2021/01/08 09:00:19;;;;;;;0.60;0.50;;;20.50;51.60;;;;;;7020783;28;20590;-57
2021/01/08 09:04:04;;;;;;;0.70;0.70;;;20.50;51.40;;;;;;7017588;28;20211;-54
2021/01/08 09:07:54;;;;;;;0.80;0.60;;;20.60;51.20;;;;;;7020308;28;20227;-54
2021/01/08 09:11:43;;;;;;;0.80;0.70;;;20.60;51.10;;;;;;7020826;28;20524;-56
2021/01/08 09:15:27;;;;;;;0.60;0.50;;;20.70;51.00;;;;;;7021694;28;20728;-56
2021/01/08 09:19:16;;;;;;;1.33;1.00;;;20.70;50.90;;;;;;7020261;28;20701;-56
2021/01/08 09:23:01;;;;;;;0.50;0.50;;;20.80;50.90;;;;;;7018763;28;20552;-52
2021/01/08 09:26:44;;;;;;;2.30;0.80;;;20.80;50.60;;;;;;7008187;28;20258;-52
2021/01/08 09:30:26;;;;;;;2.20;0.80;;;20.80;50.40;;;;;;7019333;28;20196;-54
2021/01/08 09:34:08;;;;;;;0.63;0.63;;;20.90;50.40;;;;;;7020399;28;20286;-56
2021/01/08 09:37:51;;;;;;;1.17;1.00;;;20.90;50.30;;;;;;7019989;28;20286;-53
2021/01/08 09:41:35;;;;;;;1.63;0.87;;;20.90;50.20;;;;;;7018755;28;20288;-54
2021/01/08 09:45:19;;;;;;;0.67;0.67;;;21.00;50.20;;;;;;7008998;28;20642;-54
2021/01/08 09:49:07;;;;;;;1.03;0.80;;;21.00;50.10;;;;;;7018751;28;20710;-54
2021/01/08 09:52:49;;;;;;;1.07;0.97;;;21.00;50.00;;;;;;7010504;28;20278;-54
2021/01/08 09:56:31;;;;;;;0.90;0.80;;;21.00;50.00;;;;;;7019774;28;20231;-52
2021/01/08 10:00:17;;;;;;;2.30;0.80;;;21.00;50.00;;;;;;7016077;28;20275;-54
2021/01/08 10:03:58;;;;;;;0.70;0.70;;;21.00;50.00;;;;;;7015392;28;20690;-55
2021/01/08 10:07:41;;;;;;;1.03;0.93;;;21.00;50.00;;;;;;7018847;28;20318;-54
2021/01/08 10:11:26;;;;;;;0.73;0.70;;;21.00;50.00;;;;;;7019122;28;20287;-54
2021/01/08 10:15:09;;;;;;;0.97;0.93;;;21.00;49.90;;;;;;7019856;28;20276;-56
2021/01/08 10:18:52;;;;;;;3.37;0.87;;;21.10;49.90;;;;;;7007051;28;20211;-56
2021/01/08 10:22:33;;;;;;;0.80;0.80;;;21.10;50.00;;;;;;7019087;28;20366;-54
2021/01/08 10:26:16;;;;;;;0.83;0.63;;;21.10;49.80;;;;;;7020401;27;20637;-55
2021/01/08 10:29:58;;;;;;;0.73;0.73;;;21.10;49.80;;;;;;7018681;28;20586;-53
2021/01/08 10:33:39;;;;;;;0.73;0.60;;;21.10;49.70;;;;;;7017300;28;20670;-54
2021/01/08 10:37:22;;;;;;;0.93;0.83;;;21.20;49.70;;;;;;7019176;28;20346;-56
2021/01/08 10:41:04;;;;;;;1.17;0.80;;;21.20;49.80;;;;;;7018779;28;20275;-54
2021/01/08 10:44:45;;;;;;;0.80;0.70;;;21.20;49.70;;;;;;7004314;28;20203;-53
2021/01/08 10:48:27;;;;;;;0.60;0.60;;;21.20;49.70;;;;;;7017213;28;20228;-57
2021/01/08 10:52:09;;;;;;;0.70;0.53;;;21.20;49.70;;;;;;7010693;28;20612;-57
2021/01/08 10:55:52;;;;;;;0.87;0.80;;;21.20;49.80;;;;;;7013486;28;20722;-56
2021/01/08 10:59:34;;;;;;;1.03;0.80;;;21.20;49.70;;;;;;7017882;28;20330;-59
2021/01/08 11:03:15;;;;;;;2.03;0.87;;;21.20;49.70;;;;;;7017512;28;20238;-56
2021/01/08 11:06:57;;;;;;;0.70;0.70;;;21.30;50.20;;;;;;7005495;28;20219;-56
2021/01/08 11:10:40;;;;;;;0.90;0.80;;;21.30;49.50;;;;;;7019543;28;20199;-57
2021/01/08 11:14:22;;;;;;;1.00;0.77;;;21.30;49.50;;;;;;7020844;28;20294;-60
2021/01/08 11:18:04;;;;;;;0.73;0.73;;;21.30;49.30;;;;;;7021537;28;20294;-58
2021/01/08 11:21:47;;;;;;;0.67;0.63;;;21.40;49.40;;;;;;7020161;28;20187;-55
2021/01/08 11:25:28;;;;;;;1.17;0.77;;;21.30;49.10;;;;;;7011829;28;20250;-59
2021/01/08 11:29:10;;;;;;;1.13;1.03;;;21.40;49.00;;;;;;7021453;28;20247;-53
2021/01/08 11:32:54;;;;;;;2.10;1.00;;;21.40;48.70;;;;;;7019400;28;20294;-51
2021/01/08 11:36:36;;;;;;;1.00;0.90;;;21.50;48.70;;;;;;7005803;28;20224;-49
2021/01/08 11:40:18;;;;;;;1.00;1.00;;;21.50;48.50;;;;;;7021802;28;20630;-50
2021/01/08 11:44:00;;;;;;;1.00;0.90;;;21.50;48.50;;;;;;7020992;28;20727;-54
2021/01/08 11:47:41;;;;;;;1.23;0.90;;;21.50;48.40;;;;;;7020581;28;20651;-50
2021/01/08 11:51:24;;;;;;;1.40;0.90;;;21.50;48.30;;;;;;7017663;28;20238;-55
2021/01/08 11:55:06;;;;;;;0.73;0.73;;;21.50;48.30;;;;;;7020277;28;20223;-52
2021/01/08 11:58:48;;;;;;;1.10;1.00;;;21.50;48.60;;;;;;7018907;28;20302;-53
2021/01/08 12:02:30;;;;;;;0.80;0.80;;;21.50;48.80;;;;;;7021609;28;20574;-53
2021/01/08 12:06:11;;;;;;;1.20;1.07;;;21.50;48.80;;;;;;7015364;28;20666;-53
2021/01/08 12:09:54;;;;;;;1.00;0.90;;;21.40;48.80;;;;;;7026395;28;20240;-53
2021/01/08 12:13:35;;;;;;;1.07;0.97;;;21.40;48.90;;;;;;7035491;28;20196;-56
2021/01/08 12:17:17;;;;;;;1.23;1.00;;;21.40;49.00;;;;;;7035442;28;20251;-47
2021/01/08 12:20:58;;;;;;;1.30;1.00;;;21.40;48.80;;;;;;7020000;28;20578;-52
2021/01/08 12:24:40;;;;;;;1.07;1.00;;;21.40;48.70;;;;;;7020060;28;20278;-53
2021/01/08 12:28:22;;;;;;;1.27;1.00;;;21.40;48.70;;;;;;7025859;28;20304;-45
2021/01/08 12:32:05;;;;;;;2.13;1.57;;;21.40;48.60;;;;;;7013480;27;20204;-51
2021/01/08 12:35:47;;;;;;;0.97;0.97;;;21.40;48.60;;;;;;7026142;28;20276;-55
2021/01/08 12:39:28;;;;;;;1.50;1.37;;;21.40;48.60;;;;;;7026867;28;20726;-52
2021/01/08 12:43:10;;;;;;;1.37;1.20;;;21.50;48.00;;;;;;7022237;28;20627;-51
2021/01/08 12:46:56;;;;;;;1.20;1.10;;;21.40;48.50;;;;;;7024052;28;20294;-54
2021/01/08 12:50:37;;;;;;;1.23;1.10;;;21.40;48.50;;;;;;7021189;28;20275;-51
2021/01/08 12:54:19;;;;;;;1.30;1.20;;;21.40;48.80;;;;;;7023835;28;20192;-51
2021/01/08 12:58:01;;;;;;;1.40;1.20;;;21.40;48.60;;;;;;7023345;28;20704;-53
2021/01/08 13:01:42;;;;;;;1.20;1.10;;;21.40;48.60;;;;;;7024981;28;20200;-55
2021/01/08 13:05:25;;;;;;;1.10;1.00;;;21.40;48.60;;;;;;7025660;28;20283;-50
2021/01/08 13:09:06;;;;;;;2.37;1.40;;;21.40;49.50;;;;;;7024253;28;20259;-53
2021/01/08 13:12:48;;;;;;;1.33;1.17;;;21.40;48.70;;;;;;7025130;28;20219;-51
2021/01/08 13:16:30;;;;;;;1.60;1.20;;;21.40;48.60;;;;;;7025980;28;20247;-52
2021/01/08 13:20:13;;;;;;;1.97;1.27;;;21.40;48.60;;;;;;7018333;28;20736;-51
2021/01/08 13:23:55;;;;;;;1.30;1.20;;;21.40;48.50;;;;;;7019668;28;20273;-50
2021/01/08 13:27:38;;;;;;;1.20;1.10;;;21.40;48.40;;;;;;7024225;28;20223;-56
2021/01/08 13:31:23;;;;;;;1.60;1.40;;;21.40;48.10;;;;;;7024678;28;20227;-49
2021/01/08 13:35:06;;;;;;;3.20;1.60;;;21.40;48.30;;;;;;7023462;28;20299;-52
2021/01/08 13:38:48;;;;;;;1.50;1.40;;;21.40;48.60;;;;;;7024770;28;20218;-50
2021/01/08 13:42:31;;;;;;;1.60;1.40;;;21.40;48.50;;;;;;7024385;28;20524;-49
2021/01/08 13:46:13;;;;;;;5.33;1.60;;;21.40;48.70;;;;;;7021816;28;20229;-44
2021/01/08 13:49:55;;;;;;;1.33;1.20;;;21.50;47.80;;;;;;7022372;28;20311;-48
2021/01/08 13:53:36;;;;;;;1.20;1.10;;;21.50;48.00;;;;;;7025150;28;20219;-46
2021/01/08 13:57:18;;;;;;;1.70;1.40;;;21.50;48.10;;;;;;7022478;28;20767;-53
2021/01/08 14:01:00;;;;;;;2.10;1.47;;;21.40;47.90;;;;;;7023131;28;20275;-49
2021/01/08 14:04:42;;;;;;;1.90;1.37;;;21.40;47.70;;;;;;7020030;28;20231;-50
2021/01/08 14:08:24;;;;;;;1.40;1.30;;;21.40;48.00;;;;;;7021610;28;20593;-50
2021/01/08 14:12:08;;;;;;;1.73;1.27;;;21.40;48.20;;;;;;7022376;28;20202;-49
2021/01/08 14:15:54;;;;;;;2.87;1.40;;;21.40;48.30;;;;;;7017343;28;20200;-48
2021/01/08 14:19:37;;;;;;;3.13;1.40;;;21.40;48.20;;;;;;7021460;28;20570;-45
2021/01/08 14:23:18;;;;;;;3.03;1.50;;;21.50;48.40;;;;;;7022898;28;20293;-49
2021/01/08 14:27:00;;;;;;;2.30;1.37;;;21.50;48.50;;;;;;7022023;28;20223;-50
2021/01/08 14:30:43;;;;;;;3.03;1.43;;;21.50;48.50;;;;;;7022630;28;20227;-51
2021/01/08 14:34:25;;;;;;;2.67;1.37;;;21.40;48.40;;;;;;7022628;28;20283;-47
2021/01/08 14:38:08;;;;;;;4.37;2.03;;;21.50;48.50;;;;;;7022530;28;20216;-47
2021/01/08 14:41:53;;;;;;;1.77;1.40;;;21.40;47.40;;;;;;7023522;28;20250;-48
2021/01/08 14:45:34;;;;;;;1.60;1.40;;;21.50;48.50;;;;;;7016540;28;20249;-50
2021/01/08 14:49:16;;;;;;;1.67;1.37;;;21.40;48.40;;;;;;7012247;28;20761;-47
2021/01/08 14:52:58;;;;;;;1.67;1.43;;;21.50;48.40;;;;;;7021497;28;20282;-47
2021/01/08 14:56:47;;;;;;;2.63;1.50;;;21.50;48.50;;;;;;7005492;28;20242;-47
2021/01/08 15:00:29;;;;;;;1.90;1.67;;;21.50;48.50;;;;;;7020346;28;20559;-45
2021/01/08 15:04:11;;;;;;;1.60;1.40;;;21.60;48.40;;;;;;7019062;28;20210;-47
2021/01/08 15:07:53;;;;;;;3.57;1.60;;;21.50;48.50;;;;;;7020688;28;20694;-46
2021/01/08 15:11:36;;;;;;;2.53;1.50;;;21.50;48.50;;;;;;7021828;28;20204;-48
2021/01/08 15:15:19;;;;;;;1.60;1.33;;;21.60;48.70;;;;;;7022416;28;20266;-46
2021/01/08 15:19:01;;;;;;;1.93;1.57;;;21.50;49.10;;;;;;7021425;28;20208;-49
2021/01/08 15:22:42;;;;;;;1.40;1.17;;;21.60;48.20;;;;;;7008098;28;20223;-48
2021/01/08 15:26:25;;;;;;;1.63;1.40;;;21.50;48.20;;;;;;7021401;28;20219;-46
2021/01/08 15:30:08;;;;;;;1.80;1.60;;;21.60;47.90;;;;;;7011385;28;20342;-48
2021/01/08 15:33:50;;;;;;;1.50;1.40;;;21.60;47.90;;;;;;7022435;28;20253;-49
2021/01/08 15:37:32;;;;;;;1.60;1.47;;;21.60;48.00;;;;;;7021375;28;20361;-46
2021/01/08 15:41:14;;;;;;;1.30;1.20;;;21.60;48.30;;;;;;7023505;28;20220;-48
2021/01/08 15:44:55;;;;;;;4.53;1.30;;;21.60;48.30;;;;;;7000113;28;20203;-46
2021/01/08 15:48:37;;;;;;;1.87;1.27;;;21.60;48.20;;;;;;7017020;28;20229;-47
2021/01/08 15:52:19;;;;;;;2.50;1.30;;;21.60;48.10;;;;;;7020059;28;20321;-49
2021/01/08 15:56:01;;;;;;;1.73;1.37;;;21.60;48.20;;;;;;7022138;28;20199;-44
2021/01/08 15:59:44;;;;;;;3.43;1.80;;;21.60;48.20;;;;;;7024595;28;20626;-46
2021/01/08 16:03:26;;;;;;;2.13;1.50;;;21.60;48.40;;;;;;7016003;28;20351;-45
2021/01/08 16:07:07;;;;;;;2.53;1.50;;;21.60;48.50;;;;;;7027398;28;20792;-47
2021/01/08 16:10:51;;;;;;;1.13;1.00;;;21.60;49.00;;;;;;7011432;28;20253;-46
2021/01/08 16:14:32;;;;;;;1.40;1.20;;;21.60;48.30;;;;;;7024575;28;20317;-47
2021/01/08 16:18:14;;;;;;;1.03;0.93;;;21.60;48.40;;;;;;7025442;28;20303;-46
2021/01/08 16:21:56;;;;;;;2.13;1.30;;;21.60;48.40;;;;;;7027086;28;20227;-47
2021/01/08 16:25:38;;;;;;;1.20;1.10;;;21.50;48.70;;;;;;7026189;28;20666;-49
2021/01/08 16:29:21;;;;;;;1.53;1.30;;;21.60;48.60;;;;;;7026797;28;20262;-51
2021/01/08 16:33:03;;;;;;;1.30;1.20;;;21.60;48.50;;;;;;7024702;28;20210;-48
2021/01/08 16:36:45;;;;;;;1.37;0.90;;;21.60;48.40;;;;;;7010570;28;20635;-47
2021/01/08 16:40:28;;;;;;;2.60;1.67;;;21.60;48.40;;;;;;7024978;28;20269;-48
2021/01/08 16:44:10;;;;;;;2.03;1.40;;;21.60;48.60;;;;;;7024618;28;20241;-46
2021/01/08 16:47:54;;;;;;;1.30;1.00;;;21.60;48.50;;;;;;7013649;28;20665;-48
2021/01/08 16:51:36;;;;;;;1.40;1.17;;;21.60;48.40;;;;;;7024269;28;20239;-47
2021/01/08 16:55:18;;;;;;;1.33;1.07;;;21.60;48.40;;;;;;7025944;28;20200;-46
2021/01/08 16:59:00;;;;;;;1.67;1.13;;;21.60;48.80;;;;;;7025708;28;20294;-47
2021/01/08 17:02:41;;;;;;;1.90;1.20;;;21.60;48.60;;;;;;7020390;28;20207;-46
2021/01/08 17:06:24;;;;;;;1.30;1.20;;;21.60;48.60;;;;;;7024646;28;20220;-50
2021/01/08 17:10:07;;;;;;;1.77;1.03;;;21.60;48.50;;;;;;7024437;28;20255;-48
2021/01/08 17:13:49;;;;;;;1.73;1.03;;;21.60;48.40;;;;;;7025408;28;20230;-49
2021/01/08 17:17:30;;;;;;;1.37;1.23;;;21.60;48.50;;;;;;7019957;28;20323;-50
2021/01/08 17:21:12;;;;;;;2.53;1.33;;;21.60;48.10;;;;;;7023768;28;20242;-48
2021/01/08 17:24:55;;;;;;;1.13;1.03;;;21.60;47.40;;;;;;7014216;28;20671;-51
2021/01/08 17:28:36;;;;;;;1.30;1.20;;;21.70;47.90;;;;;;7023364;28;20250;-50
2021/01/08 17:32:19;;;;;;;1.23;1.00;;;21.60;48.20;;;;;;7024271;28;20231;-50
2021/01/08 17:36:01;;;;;;;4.60;1.40;;;21.60;48.10;;;;;;7023849;28;20202;-50
2021/01/08 17:39:42;;;;;;;2.30;1.43;;;21.50;48.10;;;;;;7023464;28;20294;-50
2021/01/08 17:43:25;;;;;;;1.37;1.27;;;21.50;48.20;;;;;;7023672;28;20233;-50
2021/01/08 17:47:06;;;;;;;1.30;1.20;;;21.50;48.30;;;;;;7022918;28;20281;-51
2021/01/08 17:50:50;;;;;;;1.43;1.20;;;21.50;48.40;;;;;;7008601;28;20310;-48
2021/01/08 17:54:31;;;;;;;1.13;1.03;;;21.40;48.50;;;;;;7024502;28;20192;-48
2021/01/08 17:58:13;;;;;;;2.87;1.40;;;21.40;48.40;;;;;;7024100;28;20295;-50
2021/01/08 18:01:55;;;;;;;1.13;1.03;;;21.50;48.70;;;;;;7024293;28;20271;-49
2021/01/08 18:05:37;;;;;;;1.30;1.20;;;21.50;48.60;;;;;;7023920;28;20199;-48
2021/01/08 18:09:18;;;;;;;1.60;1.33;;;21.40;48.60;;;;;;7021640;28;20701;-48
2021/01/08 18:13:00;;;;;;;1.40;1.20;;;21.40;48.70;;;;;;7010692;28;20223;-53
2021/01/08 18:16:41;;;;;;;1.30;1.20;;;21.40;48.70;;;;;;7014874;28;20242;-51
2021/01/08 18:20:24;;;;;;;1.63;1.30;;;21.40;48.70;;;;;;7022697;28;20196;-49
2021/01/08 18:24:06;;;;;;;1.30;1.13;;;21.40;48.70;;;;;;7021648;28;20264;-50
2021/01/08 18:27:48;;;;;;;1.53;1.40;;;21.40;48.70;;;;;;7023081;28;20290;-49
2021/01/08 18:31:30;;;;;;;1.90;1.70;;;21.40;48.90;;;;;;7014848;28;20330;-50
2021/01/08 18:35:12;;;;;;;1.50;1.40;;;21.30;48.70;;;;;;7022302;28;20195;-50
2021/01/08 18:38:55;;;;;;;2.17;1.70;;;21.30;48.70;;;;;;7008862;28;20295;-53
2021/01/08 18:42:37;;;;;;;2.60;1.83;;;21.30;48.70;;;;;;7006877;28;20196;-49
2021/01/08 18:46:19;;;;;;;1.70;1.43;;;21.30;48.80;;;;;;7022761;28;20720;-50
2021/01/08 18:50:02;;;;;;;3.27;1.90;;;21.30;48.70;;;;;;7022691;28;20269;-58
2021/01/08 18:53:44;;;;;;;1.40;1.30;;;21.30;51.00;;;;;;7011751;28;20581;-53
2021/01/08 18:57:27;;;;;;;1.60;1.50;;;21.40;49.10;;;;;;7021866;28;20294;-53
2021/01/08 19:01:08;;;;;;;1.30;1.20;;;21.50;49.40;;;;;;7021070;28;20302;-52
2021/01/08 19:04:50;;;;;;;5.27;1.40;;;21.60;48.80;;;;;;7008311;28;20282;-57
2021/01/08 19:08:32;;;;;;;2.37;1.20;;;21.70;48.90;;;;;;6987143;28;20729;-57
2021/01/08 19:14:39;;;;;;;1.87;1.57;;;21.60;49.20;;;;;;10611593;27;20537;-51
2021/01/08 19:20:00;;;;;;;1.73;1.60;;;21.60;49.40;;;;;;10571130;28;20219;-53